sensor_id;sensor_type;location;lat;lon;timestamp;pressure;altitude;pressure_sealevel;temperature;humidity
41573;BME280;27286;47.870;19.006;2023-04-15T00:00:33;98250.22;;;5.24;100.00
41573;BME280;27286;47.870;19.006;2023-04-15T00:02:58;98239.84;;;5.26;100.00
41573;BME280;27286;47.870;19.006;2023-04-15T00:05:24;98253.84;;;5.19;100.00
41573;BME280;27286;47.870;19.006;2023-04-15T00:07:50;98258.41;;;5.12;100.00
41573;BME280;27286;47.870;19.006;2023-04-15T00:10:15;98254.22;;;5.09;100.00
41573;BME280;27286;47.870;19.006;2023-04-15T00:12:40;98250.50;;;5.17;100.00
41573;BME280;27286;47.870;19.006;2023-04-15T00:15:07;98250.09;;;5.27;100.00
41573;BME280;27286;47.870;19.006;2023-04-15T00:17:33;98239.84;;;5.26;100.00
41573;BME280;27286;47.870;19.006;2023-04-15T00:19:59;98247.13;;;5.14;100.00
41573;BME280;27286;47.870;19.006;2023-04-15T00:22:25;98237.41;;;4.99;100.00
41573;BME280;27286;47.870;19.006;2023-04-15T00:24:52;98236.88;;;4.91;100.00
41573;BME280;27286;47.870;19.006;2023-04-15T00:27:18;98246.28;;;4.92;100.00
41573;BME280;27286;47.870;19.006;2023-04-15T00:29:43;98241.06;;;4.94;100.00
41573;BME280;27286;47.870;19.006;2023-04-15T00:32:09;98244.34;;;4.97;100.00
41573;BME280;27286;47.870;19.006;2023-04-15T00:34:35;98235.53;;;5.03;100.00
41573;BME280;27286;47.870;19.006;2023-04-15T00:37:01;98235.72;;;4.98;100.00
41573;BME280;27286;47.870;19.006;2023-04-15T00:39:26;98232.97;;;5.03;100.00
41573;BME280;27286;47.870;19.006;2023-04-15T00:41:52;98237.34;;;5.01;100.00
41573;BME280;27286;47.870;19.006;2023-04-15T00:44:18;98233.16;;;4.98;100.00
41573;BME280;27286;47.870;19.006;2023-04-15T00:46:44;98230.69;;;4.95;100.00
41573;BME280;27286;47.870;19.006;2023-04-15T00:49:10;98228.94;;;4.96;100.00
41573;BME280;27286;47.870;19.006;2023-04-15T00:51:37;98234.75;;;5.01;100.00
41573;BME280;27286;47.870;19.006;2023-04-15T00:54:03;98228.03;;;4.97;100.00
41573;BME280;27286;47.870;19.006;2023-04-15T00:56:29;98237.47;;;4.98;100.00
41573;BME280;27286;47.870;19.006;2023-04-15T00:58:55;98240.81;;;5.00;100.00
41573;BME280;27286;47.870;19.006;2023-04-15T01:01:21;98234.94;;;4.96;100.00
41573;BME280;27286;47.870;19.006;2023-04-15T01:03:50;98250.66;;;4.90;100.00
41573;BME280;27286;47.870;19.006;2023-04-15T01:06:16;98237.13;;;4.83;100.00
41573;BME280;27286;47.870;19.006;2023-04-15T01:08:42;98237.97;;;4.84;100.00
41573;BME280;27286;47.870;19.006;2023-04-15T01:11:08;98245.44;;;4.92;100.00
41573;BME280;27286;47.870;19.006;2023-04-15T01:13:34;98244.66;;;4.90;100.00
41573;BME280;27286;47.870;19.006;2023-04-15T01:16:01;98240.22;;;4.93;100.00
41573;BME280;27286;47.870;19.006;2023-04-15T01:18:27;98245.31;;;4.95;100.00
41573;BME280;27286;47.870;19.006;2023-04-15T01:20:53;98249.88;;;4.88;100.00
41573;BME280;27286;47.870;19.006;2023-04-15T01:23:20;98249.13;;;4.84;100.00
41573;BME280;27286;47.870;19.006;2023-04-15T01:25:46;98239.88;;;4.79;100.00
41573;BME280;27286;47.870;19.006;2023-04-15T01:28:13;98252.78;;;4.79;100.00
41573;BME280;27286;47.870;19.006;2023-04-15T01:30:39;98247.75;;;4.76;100.00
41573;BME280;27286;47.870;19.006;2023-04-15T01:33:04;98248.59;;;4.76;100.00
41573;BME280;27286;47.870;19.006;2023-04-15T01:35:30;98245.09;;;4.77;100.00
41573;BME280;27286;47.870;19.006;2023-04-15T01:38:02;98240.72;;;4.79;100.00
41573;BME280;27286;47.870;19.006;2023-04-15T01:40:29;98233.78;;;4.81;100.00
41573;BME280;27286;47.870;19.006;2023-04-15T01:42:55;98240.56;;;4.84;100.00
41573;BME280;27286;47.870;19.006;2023-04-15T01:45:20;98236.09;;;4.89;100.00
41573;BME280;27286;47.870;19.006;2023-04-15T01:47:46;98248.03;;;4.92;100.00
41573;BME280;27286;47.870;19.006;2023-04-15T01:50:11;98240.28;;;4.92;100.00
41573;BME280;27286;47.870;19.006;2023-04-15T01:52:37;98241.19;;;4.91;100.00
41573;BME280;27286;47.870;19.006;2023-04-15T01:55:03;98239.31;;;4.94;100.00
41573;BME280;27286;47.870;19.006;2023-04-15T01:57:28;98240.09;;;4.96;100.00
41573;BME280;27286;47.870;19.006;2023-04-15T01:59:54;98230.38;;;5.03;100.00
41573;BME280;27286;47.870;19.006;2023-04-15T02:02:20;98232.28;;;5.21;100.00
41573;BME280;27286;47.870;19.006;2023-04-15T02:04:45;98229.31;;;5.30;100.00
41573;BME280;27286;47.870;19.006;2023-04-15T02:07:11;98224.34;;;5.26;100.00
41573;BME280;27286;47.870;19.006;2023-04-15T02:09:36;98229.66;;;5.23;100.00
41573;BME280;27286;47.870;19.006;2023-04-15T02:12:02;98224.81;;;5.13;100.00
41573;BME280;27286;47.870;19.006;2023-04-15T02:14:28;98230.16;;;5.09;100.00
41573;BME280;27286;47.870;19.006;2023-04-15T02:16:53;98228.63;;;5.03;100.00
41573;BME280;27286;47.870;19.006;2023-04-15T02:19:18;98235.38;;;5.07;100.00
41573;BME280;27286;47.870;19.006;2023-04-15T02:21:44;98230.09;;;5.10;100.00
41573;BME280;27286;47.870;19.006;2023-04-15T02:24:09;98227.34;;;5.15;100.00
41573;BME280;27286;47.870;19.006;2023-04-15T02:26:36;98232.09;;;5.26;100.00
41573;BME280;27286;47.870;19.006;2023-04-15T02:29:02;98232.09;;;5.26;100.00
41573;BME280;27286;47.870;19.006;2023-04-15T02:31:27;98231.84;;;5.32;100.00
41573;BME280;27286;47.870;19.006;2023-04-15T02:33:52;98220.88;;;5.27;100.00
41573;BME280;27286;47.870;19.006;2023-04-15T02:36:18;98223.88;;;5.38;100.00
41573;BME280;27286;47.870;19.006;2023-04-15T02:38:45;98227.53;;;5.32;100.00
41573;BME280;27286;47.870;19.006;2023-04-15T02:41:10;98227.97;;;5.22;100.00
41573;BME280;27286;47.870;19.006;2023-04-15T02:43:36;98229.91;;;5.15;100.00
41573;BME280;27286;47.870;19.006;2023-04-15T02:46:02;98231.00;;;5.09;100.00
41573;BME280;27286;47.870;19.006;2023-04-15T02:48:27;98226.13;;;5.02;100.00
41573;BME280;27286;47.870;19.006;2023-04-15T02:50:53;98231.06;;;5.08;100.00
41573;BME280;27286;47.870;19.006;2023-04-15T02:53:18;98231.47;;;5.19;100.00
41573;BME280;27286;47.870;19.006;2023-04-15T02:55:44;98238.38;;;5.19;100.00
41573;BME280;27286;47.870;19.006;2023-04-15T02:58:10;98232.44;;;5.17;100.00
41573;BME280;27286;47.870;19.006;2023-04-15T03:00:36;98233.22;;;5.19;100.00
41573;BME280;27286;47.870;19.006;2023-04-15T03:03:03;98234.88;;;5.21;100.00
41573;BME280;27286;47.870;19.006;2023-04-15T03:05:28;98236.28;;;5.28;100.00
41573;BME280;27286;47.870;19.006;2023-04-15T03:07:54;98232.03;;;5.27;100.00
41573;BME280;27286;47.870;19.006;2023-04-15T03:10:20;98235.31;;;5.31;100.00
41573;BME280;27286;47.870;19.006;2023-04-15T03:12:45;98229.91;;;5.37;100.00
41573;BME280;27286;47.870;19.006;2023-04-15T03:15:11;98229.63;;;5.44;100.00
41573;BME280;27286;47.870;19.006;2023-04-15T03:17:37;98231.81;;;5.54;100.00
41573;BME280;27286;47.870;19.006;2023-04-15T03:20:03;98220.97;;;5.46;100.00
41573;BME280;27286;47.870;19.006;2023-04-15T03:22:33;98223.31;;;5.52;100.00
41573;BME280;27286;47.870;19.006;2023-04-15T03:24:58;98224.22;;;5.51;100.00
41573;BME280;27286;47.870;19.006;2023-04-15T03:27:24;98225.25;;;5.47;100.00
41573;BME280;27286;47.870;19.006;2023-04-15T03:29:50;98227.06;;;5.44;100.00
41573;BME280;27286;47.870;19.006;2023-04-15T03:32:16;98234.97;;;5.40;100.00
41573;BME280;27286;47.870;19.006;2023-04-15T03:34:41;98241.97;;;5.36;100.00
41573;BME280;27286;47.870;19.006;2023-04-15T03:37:07;98254.34;;;5.28;100.00
41573;BME280;27286;47.870;19.006;2023-04-15T03:39:33;98253.91;;;5.17;100.00
41573;BME280;27286;47.870;19.006;2023-04-15T03:41:58;98248.81;;;5.16;100.00
41573;BME280;27286;47.870;19.006;2023-04-15T03:44:25;98241.63;;;5.24;100.00
41573;BME280;27286;47.870;19.006;2023-04-15T03:46:50;98234.16;;;5.39;100.00
41573;BME280;27286;47.870;19.006;2023-04-15T03:49:16;98224.41;;;5.46;100.00
41573;BME280;27286;47.870;19.006;2023-04-15T03:51:41;98230.81;;;5.58;100.00
41573;BME280;27286;47.870;19.006;2023-04-15T03:54:07;98227.34;;;5.59;100.00
41573;BME280;27286;47.870;19.006;2023-04-15T03:56:32;98223.78;;;5.61;100.00
41573;BME280;27286;47.870;19.006;2023-04-15T03:58:58;98218.81;;;5.57;100.00
41573;BME280;27286;47.870;19.006;2023-04-15T04:01:23;98224.06;;;5.55;100.00
41573;BME280;27286;47.870;19.006;2023-04-15T04:03:48;98234.41;;;5.54;100.00
41573;BME280;27286;47.870;19.006;2023-04-15T04:06:14;98230.06;;;5.56;100.00
41573;BME280;27286;47.870;19.006;2023-04-15T04:08:40;98231.97;;;5.51;100.00
41573;BME280;27286;47.870;19.006;2023-04-15T04:11:05;98228.59;;;5.49;100.00
41573;BME280;27286;47.870;19.006;2023-04-15T04:13:31;98236.72;;;5.39;100.00
41573;BME280;27286;47.870;19.006;2023-04-15T04:15:56;98236.28;;;5.28;100.00
41573;BME280;27286;47.870;19.006;2023-04-15T04:18:21;98236.53;;;5.22;100.00
41573;BME280;27286;47.870;19.006;2023-04-15T04:20:47;98231.47;;;5.19;100.00
41573;BME280;27286;47.870;19.006;2023-04-15T04:23:12;98229.84;;;5.17;100.00
41573;BME280;27286;47.870;19.006;2023-04-15T04:25:38;98238.44;;;5.17;100.00
41573;BME280;27286;47.870;19.006;2023-04-15T04:28:03;98231.44;;;5.21;100.00
41573;BME280;27286;47.870;19.006;2023-04-15T04:30:28;98232.03;;;5.27;100.00
41573;BME280;27286;47.870;19.006;2023-04-15T04:32:54;98227.41;;;5.35;100.00
41573;BME280;27286;47.870;19.006;2023-04-15T04:35:20;98232.41;;;5.40;100.00
41573;BME280;27286;47.870;19.006;2023-04-15T04:37:46;98223.56;;;5.46;100.00
41573;BME280;27286;47.870;19.006;2023-04-15T04:40:12;98235.44;;;5.50;100.00
41573;BME280;27286;47.870;19.006;2023-04-15T04:42:37;98234.59;;;5.49;100.00
41573;BME280;27286;47.870;19.006;2023-04-15T04:45:03;98229.38;;;5.51;100.00
41573;BME280;27286;47.870;19.006;2023-04-15T04:47:29;98229.09;;;5.58;100.00
41573;BME280;27286;47.870;19.006;2023-04-15T04:49:54;98228.81;;;5.64;100.00
41573;BME280;27286;47.870;19.006;2023-04-15T04:52:19;98236.31;;;5.70;100.00
41573;BME280;27286;47.870;19.006;2023-04-15T04:54:45;98235.13;;;5.79;100.00
41573;BME280;27286;47.870;19.006;2023-04-15T04:57:11;98235.06;;;5.81;100.00
41573;BME280;27286;47.870;19.006;2023-04-15T04:59:37;98237.50;;;5.84;100.00
41573;BME280;27286;47.870;19.006;2023-04-15T05:02:03;98242.53;;;5.87;100.00
41573;BME280;27286;47.870;19.006;2023-04-15T05:04:28;98246.75;;;5.89;100.00
41573;BME280;27286;47.870;19.006;2023-04-15T05:06:55;98241.56;;;5.91;100.00
41573;BME280;27286;47.870;19.006;2023-04-15T05:09:20;98239.69;;;5.94;100.00
41573;BME280;27286;47.870;19.006;2023-04-15T05:11:46;98233.47;;;5.98;100.00
41573;BME280;27286;47.870;19.006;2023-04-15T05:14:11;98239.19;;;6.07;100.00
41573;BME280;27286;47.870;19.006;2023-04-15T05:16:37;98240.72;;;6.11;100.00
41573;BME280;27286;47.870;19.006;2023-04-15T05:19:02;98235.34;;;6.15;100.00
41573;BME280;27286;47.870;19.006;2023-04-15T05:21:27;98231.91;;;6.35;100.00
41573;BME280;27286;47.870;19.006;2023-04-15T05:23:53;98226.72;;;6.55;100.00
41573;BME280;27286;47.870;19.006;2023-04-15T05:26:18;98214.00;;;6.70;100.00
41573;BME280;27286;47.870;19.006;2023-04-15T05:28:44;98220.38;;;6.81;100.00
41573;BME280;27286;47.870;19.006;2023-04-15T05:31:10;98217.16;;;6.95;100.00
41573;BME280;27286;47.870;19.006;2023-04-15T05:33:35;98219.97;;;7.09;100.00
41573;BME280;27286;47.870;19.006;2023-04-15T05:36:01;98223.72;;;7.21;100.00
41573;BME280;27286;47.870;19.006;2023-04-15T05:38:26;98227.63;;;7.30;100.00
41573;BME280;27286;47.870;19.006;2023-04-15T05:40:51;98224.75;;;7.36;100.00
41573;BME280;27286;47.870;19.006;2023-04-15T05:43:17;98233.91;;;7.43;100.00
41573;BME280;27286;47.870;19.006;2023-04-15T05:45:42;98235.44;;;7.47;100.00
41573;BME280;27286;47.870;19.006;2023-04-15T05:48:08;98235.34;;;7.48;100.00
41573;BME280;27286;47.870;19.006;2023-04-15T05:50:33;98234.53;;;7.48;100.00
41573;BME280;27286;47.870;19.006;2023-04-15T05:52:59;98241.53;;;7.46;100.00
41573;BME280;27286;47.870;19.006;2023-04-15T05:55:25;98238.88;;;7.47;100.00
41573;BME280;27286;47.870;19.006;2023-04-15T05:57:51;98242.97;;;7.51;100.00
41573;BME280;27286;47.870;19.006;2023-04-15T06:00:17;98243.53;;;7.58;100.00
41573;BME280;27286;47.870;19.006;2023-04-15T06:02:42;98239.97;;;7.61;100.00
41573;BME280;27286;47.870;19.006;2023-04-15T06:05:08;98256.34;;;7.61;100.00
41573;BME280;27286;47.870;19.006;2023-04-15T06:07:34;98251.31;;;7.58;100.00
41573;BME280;27286;47.870;19.006;2023-04-15T06:10:01;98257.97;;;7.45;100.00
41573;BME280;27286;47.870;19.006;2023-04-15T06:12:27;98259.03;;;7.41;100.00
41573;BME280;27286;47.870;19.006;2023-04-15T06:14:52;98258.91;;;7.44;100.00
41573;BME280;27286;47.870;19.006;2023-04-15T06:17:18;98262.25;;;7.46;100.00
41573;BME280;27286;47.870;19.006;2023-04-15T06:19:43;98262.72;;;7.54;100.00
41573;BME280;27286;47.870;19.006;2023-04-15T06:22:09;98262.59;;;7.57;100.00
41573;BME280;27286;47.870;19.006;2023-04-15T06:24:34;98266.63;;;7.63;100.00
41573;BME280;27286;47.870;19.006;2023-04-15T06:27:01;98267.31;;;7.66;100.00
41573;BME280;27286;47.870;19.006;2023-04-15T06:29:27;98268.75;;;7.72;100.00
41573;BME280;27286;47.870;19.006;2023-04-15T06:31:53;98276.31;;;7.76;100.00
41573;BME280;27286;47.870;19.006;2023-04-15T06:34:18;98271.31;;;7.73;100.00
41573;BME280;27286;47.870;19.006;2023-04-15T06:36:44;98270.06;;;7.80;99.85
41573;BME280;27286;47.870;19.006;2023-04-15T06:39:09;98276.03;;;7.82;99.90
41573;BME280;27286;47.870;19.006;2023-04-15T06:41:35;98274.66;;;7.75;100.00
41573;BME280;27286;47.870;19.006;2023-04-15T06:44:00;98276.59;;;7.70;100.00
41573;BME280;27286;47.870;19.006;2023-04-15T06:46:26;98268.97;;;7.67;100.00
41573;BME280;27286;47.870;19.006;2023-04-15T06:48:51;98276.00;;;7.65;100.00
41573;BME280;27286;47.870;19.006;2023-04-15T06:51:17;98276.28;;;7.59;100.00
41573;BME280;27286;47.870;19.006;2023-04-15T06:53:43;98280.34;;;7.65;100.00
41573;BME280;27286;47.870;19.006;2023-04-15T06:56:08;98280.50;;;7.62;100.00
41573;BME280;27286;47.870;19.006;2023-04-15T06:58:34;98285.06;;;7.57;100.00
41573;BME280;27286;47.870;19.006;2023-04-15T07:01:00;98285.06;;;7.57;100.00
41573;BME280;27286;47.870;19.006;2023-04-15T07:03:25;98293.50;;;7.60;100.00
41573;BME280;27286;47.870;19.006;2023-04-15T07:05:51;98295.13;;;7.63;100.00
41573;BME280;27286;47.870;19.006;2023-04-15T07:08:17;98293.59;;;7.59;100.00
41573;BME280;27286;47.870;19.006;2023-04-15T07:10:43;98295.69;;;7.50;100.00
41573;BME280;27286;47.870;19.006;2023-04-15T07:13:08;98298.50;;;7.46;100.00
41573;BME280;27286;47.870;19.006;2023-04-15T07:15:33;98308.16;;;7.42;100.00
41573;BME280;27286;47.870;19.006;2023-04-15T07:17:59;98304.94;;;7.37;100.00
41573;BME280;27286;47.870;19.006;2023-04-15T07:20:24;98296.97;;;7.42;100.00
41573;BME280;27286;47.870;19.006;2023-04-15T07:22:50;98298.50;;;7.46;100.00
41573;BME280;27286;47.870;19.006;2023-04-15T07:25:15;98301.13;;;7.63;100.00
41573;BME280;27286;47.870;19.006;2023-04-15T07:27:41;98305.81;;;7.74;100.00
41573;BME280;27286;47.870;19.006;2023-04-15T07:30:08;98304.22;;;7.89;100.00
41573;BME280;27286;47.870;19.006;2023-04-15T07:32:33;98310.41;;;8.21;99.77
41573;BME280;27286;47.870;19.006;2023-04-15T07:34:59;98309.06;;;8.65;96.34
41573;BME280;27286;47.870;19.006;2023-04-15T07:37:24;98316.28;;;8.93;95.22
41573;BME280;27286;47.870;19.006;2023-04-15T07:39:49;98313.78;;;9.08;93.35
41573;BME280;27286;47.870;19.006;2023-04-15T07:42:15;98322.41;;;9.08;91.99
41573;BME280;27286;47.870;19.006;2023-04-15T07:44:41;98315.63;;;9.21;92.68
41573;BME280;27286;47.870;19.006;2023-04-15T07:47:06;98328.66;;;9.53;91.07
41573;BME280;27286;47.870;19.006;2023-04-15T07:49:31;98319.09;;;10.31;88.04
41573;BME280;27286;47.870;19.006;2023-04-15T07:51:57;98325.28;;;9.98;85.73
41573;BME280;27286;47.870;19.006;2023-04-15T07:54:24;98323.56;;;10.13;85.14
41573;BME280;27286;47.870;19.006;2023-04-15T07:56:49;98320.25;;;12.10;76.90
41573;BME280;27286;47.870;19.006;2023-04-15T07:59:16;98318.97;;;13.32;73.89
41573;BME280;27286;47.870;19.006;2023-04-15T08:01:42;98321.50;;;13.70;71.09
41573;BME280;27286;47.870;19.006;2023-04-15T08:04:08;98323.13;;;13.47;70.13
41573;BME280;27286;47.870;19.006;2023-04-15T08:06:34;98330.38;;;12.80;71.48
41573;BME280;27286;47.870;19.006;2023-04-15T08:09:00;98337.91;;;12.97;70.00
41573;BME280;27286;47.870;19.006;2023-04-15T08:11:26;98335.06;;;12.22;72.87
41573;BME280;27286;47.870;19.006;2023-04-15T08:13:52;98340.19;;;12.24;71.75
41573;BME280;27286;47.870;19.006;2023-04-15T08:16:20;98348.56;;;13.19;71.21
41573;BME280;27286;47.870;19.006;2023-04-15T08:18:51;98341.31;;;12.72;72.32
41573;BME280;27286;47.870;19.006;2023-04-15T08:21:17;98335.81;;;12.24;75.18
41573;BME280;27286;47.870;19.006;2023-04-15T08:23:44;98338.53;;;11.96;76.50
41573;BME280;27286;47.870;19.006;2023-04-15T08:26:11;98338.63;;;12.21;73.43
41573;BME280;27286;47.870;19.006;2023-04-15T08:28:38;98335.78;;;13.77;68.78
41573;BME280;27286;47.870;19.006;2023-04-15T08:31:04;98337.50;;;14.02;66.21
41573;BME280;27286;47.870;19.006;2023-04-15T08:33:29;98338.03;;;14.18;63.40
41573;BME280;27286;47.870;19.006;2023-04-15T08:35:55;98338.31;;;12.91;68.11
41573;BME280;27286;47.870;19.006;2023-04-15T08:38:20;98346.13;;;12.26;70.27
41573;BME280;27286;47.870;19.006;2023-04-15T08:40:46;98338.13;;;12.02;70.57
41573;BME280;27286;47.870;19.006;2023-04-15T08:43:20;98339.59;;;11.93;71.47
41573;BME280;27286;47.870;19.006;2023-04-15T08:45:47;98342.22;;;11.65;72.53
41573;BME280;27286;47.870;19.006;2023-04-15T08:48:16;98333.91;;;11.87;70.07
41573;BME280;27286;47.870;19.006;2023-04-15T08:50:42;98330.84;;;13.61;64.08
41573;BME280;27286;47.870;19.006;2023-04-15T08:53:09;98331.94;;;14.65;57.92
41573;BME280;27286;47.870;19.006;2023-04-15T08:55:45;98331.50;;;14.24;59.24
41573;BME280;27286;47.870;19.006;2023-04-15T08:58:13;98333.13;;;17.01;50.82
41573;BME280;27286;47.870;19.006;2023-04-15T09:00:40;98319.91;;;18.22;47.58
41573;BME280;27286;47.870;19.006;2023-04-15T09:03:05;98317.38;;;17.82;48.92
41573;BME280;27286;47.870;19.006;2023-04-15T09:05:32;98322.34;;;17.04;49.99
41573;BME280;27286;47.870;19.006;2023-04-15T09:07:59;98311.25;;;18.97;45.43
41573;BME280;27286;47.870;19.006;2023-04-15T09:10:25;98318.78;;;17.95;44.59
41573;BME280;27286;47.870;19.006;2023-04-15T09:12:50;98318.31;;;17.71;44.21
41573;BME280;27286;47.870;19.006;2023-04-15T09:15:16;98320.25;;;16.45;49.71
41573;BME280;27286;47.870;19.006;2023-04-15T09:17:44;98336.16;;;15.35;50.38
41573;BME280;27286;47.870;19.006;2023-04-15T09:20:14;98326.09;;;14.38;52.54
41573;BME280;27286;47.870;19.006;2023-04-15T09:22:44;98324.16;;;14.53;54.46
41573;BME280;27286;47.870;19.006;2023-04-15T09:27:54;98320.31;;;15.70;52.91
41573;BME280;27286;47.870;19.006;2023-04-15T09:30:21;98318.25;;;14.73;53.06
41573;BME280;27286;47.870;19.006;2023-04-15T09:32:57;98322.41;;;14.64;56.82
41573;BME280;27286;47.870;19.006;2023-04-15T09:35:24;98315.78;;;17.29;50.28
41573;BME280;27286;47.870;19.006;2023-04-15T09:37:51;98320.81;;;16.28;48.31
41573;BME280;27286;47.870;19.006;2023-04-15T09:40:36;98312.47;;;14.46;53.21
41573;BME280;27286;47.870;19.006;2023-04-15T09:43:02;98328.41;;;13.21;58.65
41573;BME280;27286;47.870;19.006;2023-04-15T09:45:30;98324.72;;;12.60;61.82
41573;BME280;27286;47.870;19.006;2023-04-15T09:48:17;98322.84;;;12.10;63.11
41573;BME280;27286;47.870;19.006;2023-04-15T09:50:43;98319.66;;;11.78;66.13
41573;BME280;27286;47.870;19.006;2023-04-15T09:53:09;98322.97;;;11.53;67.68
41573;BME280;27286;47.870;19.006;2023-04-15T09:55:38;98327.75;;;11.32;70.36
41573;BME280;27286;47.870;19.006;2023-04-15T09:58:08;98323.94;;;11.24;73.13
41573;BME280;27286;47.870;19.006;2023-04-15T10:00:34;98336.50;;;11.45;70.61
41573;BME280;27286;47.870;19.006;2023-04-15T10:03:02;98331.72;;;11.52;70.04
41573;BME280;27286;47.870;19.006;2023-04-15T10:05:30;98325.22;;;11.59;68.95
41573;BME280;27286;47.870;19.006;2023-04-15T10:07:56;98328.81;;;11.57;70.00
41573;BME280;27286;47.870;19.006;2023-04-15T10:10:22;98324.28;;;11.60;69.58
41573;BME280;27286;47.870;19.006;2023-04-15T10:12:48;98328.56;;;11.47;69.12
41573;BME280;27286;47.870;19.006;2023-04-15T10:15:15;98326.44;;;11.25;69.10
41573;BME280;27286;47.870;19.006;2023-04-15T10:17:43;98328.78;;;11.01;69.62
41573;BME280;27286;47.870;19.006;2023-04-15T10:20:09;98326.06;;;10.89;71.34
41573;BME280;27286;47.870;19.006;2023-04-15T10:22:37;98326.66;;;10.94;71.74
41573;BME280;27286;47.870;19.006;2023-04-15T10:25:04;98326.09;;;11.03;71.74
41573;BME280;27286;47.870;19.006;2023-04-15T10:27:30;98318.47;;;11.14;70.16
41573;BME280;27286;47.870;19.006;2023-04-15T10:29:56;98320.50;;;11.23;71.31
41573;BME280;27286;47.870;19.006;2023-04-15T10:32:23;98311.84;;;11.23;71.19
41573;BME280;27286;47.870;19.006;2023-04-15T10:34:50;98311.50;;;11.14;66.39
41573;BME280;27286;47.870;19.006;2023-04-15T10:37:34;98314.09;;;11.29;65.81
41573;BME280;27286;47.870;19.006;2023-04-15T10:40:24;98309.22;;;11.23;68.02
41573;BME280;27286;47.870;19.006;2023-04-15T10:42:54;98321.81;;;11.16;66.46
41573;BME280;27286;47.870;19.006;2023-04-15T10:45:21;98324.97;;;11.21;68.87
41573;BME280;27286;47.870;19.006;2023-04-15T10:47:51;98318.72;;;11.24;69.50
41573;BME280;27286;47.870;19.006;2023-04-15T10:50:17;98324.88;;;11.23;68.80
41573;BME280;27286;47.870;19.006;2023-04-15T10:52:43;98321.06;;;11.28;67.56
41573;BME280;27286;47.870;19.006;2023-04-15T10:55:17;98335.75;;;11.43;66.89
41573;BME280;27286;47.870;19.006;2023-04-15T10:57:44;98318.59;;;11.54;66.30
41573;BME280;27286;47.870;19.006;2023-04-15T11:00:14;98327.75;;;11.73;67.92
41573;BME280;27286;47.870;19.006;2023-04-15T11:02:55;98337.66;;;11.68;64.74
41573;BME280;27286;47.870;19.006;2023-04-15T11:08:06;98326.69;;;11.63;66.73
41573;BME280;27286;47.870;19.006;2023-04-15T11:12:59;98335.38;;;11.35;63.72
41573;BME280;27286;47.870;19.006;2023-04-15T11:15:32;98330.94;;;11.09;66.68
41573;BME280;27286;47.870;19.006;2023-04-15T11:18:10;98333.06;;;10.88;67.94
41573;BME280;27286;47.870;19.006;2023-04-15T11:20:37;98332.97;;;10.75;68.01
41573;BME280;27286;47.870;19.006;2023-04-15T11:23:03;98341.75;;;10.59;68.73
41573;BME280;27286;47.870;19.006;2023-04-15T11:25:31;98341.81;;;10.57;73.47
41573;BME280;27286;47.870;19.006;2023-04-15T11:27:58;98327.63;;;9.71;85.80
41573;BME280;27286;47.870;19.006;2023-04-15T11:30:25;98354.22;;;9.45;91.40
41573;BME280;27286;47.870;19.006;2023-04-15T11:32:53;98348.50;;;9.54;93.33
41573;BME280;27286;47.870;19.006;2023-04-15T11:35:19;98344.31;;;9.51;92.36
41573;BME280;27286;47.870;19.006;2023-04-15T11:37:45;98351.84;;;9.40;96.58
41573;BME280;27286;47.870;19.006;2023-04-15T11:40:11;98350.50;;;9.33;94.36
41573;BME280;27286;47.870;19.006;2023-04-15T11:42:38;98350.34;;;9.36;94.09
41573;BME280;27286;47.870;19.006;2023-04-15T11:47:37;98344.78;;;10.81;89.10
41573;BME280;27286;47.870;19.006;2023-04-15T11:50:19;98348.28;;;11.80;83.54
41573;BME280;27286;47.870;19.006;2023-04-15T11:53:03;98343.31;;;15.22;69.46
41573;BME280;27286;47.870;19.006;2023-04-15T11:55:29;98333.28;;;15.83;60.97
41573;BME280;27286;47.870;19.006;2023-04-15T11:58:09;98341.38;;;14.79;68.04
41573;BME280;27286;47.870;19.006;2023-04-15T12:00:39;98336.84;;;13.38;66.19
41573;BME280;27286;47.870;19.006;2023-04-15T12:03:17;98341.88;;;13.15;65.56
41573;BME280;27286;47.870;19.006;2023-04-15T12:08:50;98335.22;;;15.47;56.45
41573;BME280;27286;47.870;19.006;2023-04-15T12:11:28;98340.69;;;15.55;54.11
41573;BME280;27286;47.870;19.006;2023-04-15T12:14:04;98338.28;;;15.75;54.49
41573;BME280;27286;47.870;19.006;2023-04-15T12:16:30;98343.91;;;15.70;51.04
41573;BME280;27286;47.870;19.006;2023-04-15T12:18:58;98353.78;;;15.11;53.59
41573;BME280;27286;47.870;19.006;2023-04-15T12:21:25;98347.31;;;15.93;53.05
41573;BME280;27286;47.870;19.006;2023-04-15T12:23:54;98350.34;;;14.99;52.81
41573;BME280;27286;47.870;19.006;2023-04-15T12:26:27;98349.16;;;15.37;51.81
41573;BME280;27286;47.870;19.006;2023-04-15T12:29:04;98351.06;;;14.31;55.66
41573;BME280;27286;47.870;19.006;2023-04-15T12:31:31;98357.00;;;13.61;61.76
41573;BME280;27286;47.870;19.006;2023-04-15T12:33:58;98369.78;;;13.15;61.17
41573;BME280;27286;47.870;19.006;2023-04-15T12:36:24;98365.91;;;12.82;61.68
41573;BME280;27286;47.870;19.006;2023-04-15T12:38:50;98368.56;;;12.55;62.12
41573;BME280;27286;47.870;19.006;2023-04-15T12:41:15;98366.53;;;12.33;65.36
41573;BME280;27286;47.870;19.006;2023-04-15T12:43:43;98367.00;;;12.26;63.21
41573;BME280;27286;47.870;19.006;2023-04-15T12:46:09;98373.72;;;12.30;66.20
41573;BME280;27286;47.870;19.006;2023-04-15T12:48:35;98375.44;;;12.44;63.81
41573;BME280;27286;47.870;19.006;2023-04-15T12:51:00;98378.31;;;12.66;61.75
41573;BME280;27286;47.870;19.006;2023-04-15T12:53:26;98369.28;;;12.45;61.68
41573;BME280;27286;47.870;19.006;2023-04-15T12:55:53;98375.56;;;12.15;64.95
41573;BME280;27286;47.870;19.006;2023-04-15T12:58:18;98373.25;;;12.11;65.38
41573;BME280;27286;47.870;19.006;2023-04-15T13:00:44;98384.09;;;12.44;64.78